This is the latest recevied weather packets stored in our database for station/object W2SBL-1. If no packets are shown the sender has not sent any weather packets the latest 10 day(s).
| Time | Temp. | Humidity | Pressure | Rain* | Wind** | Luminosity | Snow |
|---|---|---|---|---|---|---|---|
| 1777791959 | 11.67° C | 51% | 1009 hPa | - | - | - | - |
| 1777791059 | 12.22° C | 52% | 1009 hPa | - | - | - | - |
| 1777790159 | 12.22° C | 52% | 1009 hPa | - | - | - | - |
| 1777789259 | 12.22° C | 52% | 1009.4 hPa | - | - | - | - |
| 1777788359 | 12.22° C | 52% | 1009.1 hPa | - | - | - | - |
| 1777787459 | 12.22° C | 52% | 1009.5 hPa | - | - | - | - |
| 1777785658 | 12.78° C | 51% | 1009.6 hPa | - | - | - | - |
| 1777784758 | 12.78° C | 51% | 1009.9 hPa | - | - | - | - |
| 1777783858 | 12.78° C | 52% | 1010.1 hPa | - | - | - | - |
| 1777782958 | 12.78° C | 52% | 1009.7 hPa | - | - | - | - |
| 1777782058 | 12.78° C | 52% | 1010 hPa | - | - | - | - |
| 1777781158 | 12.78° C | 52% | 1010.4 hPa | - | - | - | - |
| 1777780258 | 12.78° C | 52% | 1010.2 hPa | - | - | - | - |
| 1777779358 | 12.78° C | 52% | 1010 hPa | - | - | - | - |
| 1777778462 | 1.67° C | 52% | 991.9 hPa | - | - | - | - |
| 1777777557 | 12.78° C | 53% | 1010.2 hPa | - | - | - | - |
| 1777776657 | 12.78° C | 53% | 1010 hPa | - | - | - | - |
| 1777775757 | 12.78° C | 54% | 1010.2 hPa | - | - | - | - |
| 1777774857 | 12.78° C | 53% | 1010.3 hPa | - | - | - | - |
| 1777773961 | 12.78° C | 54% | 1010.3 hPa | - | - | - | - |
| 1777773057 | 13.33° C | 54% | 1010.3 hPa | - | - | - | - |
| 1777772157 | 13.33° C | 53% | 1010 hPa | - | - | - | - |
| 1777771257 | 13.89° C | 53% | 1014 hPa | - | - | - | - |
| 1777571440 | 15.56° C | 52% | 1006.6 hPa | - | - | - | - |
| 1777570540 | 15.56° C | 51% | 1006.6 hPa | - | - | - | - |
* Rain since midnight (hover to see other rain measurements)
** Current wind speed in m/s (hover to see current wind gust speed)